Time;durP1;ratioP1;P1;durP2;ratioP2;P2;SDS_P1;SDS_P2;PMS_P1;PMS_P2;Temp;Humidity;BMP_temperature;BMP_pressure;BME280_temperature;BME280_humidity;BME280_pressure;Samples;Min_cycle;Max_cycle;Signal;HPM_P1;HPM_P2
2022/07/20 00:02:13;;;;;;;1.13;1.13;;;;;;;22.74;46.11;100434.75;5071048;28;20321;-72
2022/07/20 00:04:39;;;;;;;0.00;0.00;;;;;;;22.65;46.46;100435.13;5069556;28;20194;-71
2022/07/20 00:07:04;;;;;;;0.00;0.00;;;;;;;22.52;47.03;100429.13;5070851;28;20185;-71
2022/07/20 00:12:14;;;;;;;0.00;0.00;;;;;;;22.41;46.24;100419.91;5071242;28;20228;-71
2022/07/20 00:14:39;;;;;;;0.00;0.00;;;;;;;22.50;47.14;100428.72;5071088;28;20266;-71
2022/07/20 00:17:05;;;;;;;0.00;0.00;;;;;;;22.48;47.18;100431.09;5070654;28;20771;-71
2022/07/20 00:19:30;;;;;;;0.00;0.00;;;;;;;22.42;47.41;100424.31;5069325;28;20170;-72
2022/07/20 00:21:55;;;;;;;0.00;0.00;;;;;;;22.21;47.89;100429.78;5070813;28;20198;-72
2022/07/20 00:24:21;;;;;;;0.17;0.17;;;;;;;21.95;48.45;100423.25;5069480;28;20263;-71
2022/07/20 00:26:46;;;;;;;0.07;0.07;;;;;;;21.79;48.45;100425.56;5070645;28;20252;-71
2022/07/20 00:29:11;;;;;;;0.00;0.00;;;;;;;21.67;49.18;100428.66;5070559;28;20680;-71
2022/07/20 00:31:37;;;;;;;0.00;0.00;;;;;;;21.64;50.24;100421.09;5069458;28;20177;-72
2022/07/20 00:34:03;;;;;;;0.10;0.10;;;;;;;21.63;50.13;100425.06;5070736;28;20174;-71
2022/07/20 00:36:29;;;;;;;0.00;0.00;;;;;;;21.65;50.79;100428.25;5070637;28;20220;-71
2022/07/20 00:38:54;;;;;;;0.00;0.00;;;;;;;21.62;51.18;100426.25;5069031;28;20179;-71
2022/07/20 00:41:19;;;;;;;0.00;0.00;;;;;;;21.55;51.13;100415.06;5070642;28;20175;-71
2022/07/20 00:44:02;;;;;;;0.00;0.00;;;;;;;21.50;51.34;100416.22;5069316;28;20654;-72
2022/07/20 00:46:30;;;;;;;0.00;0.00;;;;;;;21.45;50.84;100413.81;5070549;28;20178;-72
2022/07/20 00:48:56;;;;;;;0.00;0.00;;;;;;;21.40;49.81;100408.59;5070287;28;20206;-71
2022/07/20 00:51:21;;;;;;;0.00;0.00;;;;;;;21.41;50.82;100418.56;5069020;28;20279;-71
2022/07/20 00:53:47;;;;;;;0.00;0.00;;;;;;;21.25;50.57;100409.66;5074310;28;20174;-72
2022/07/20 00:56:15;;;;;;;0.00;0.00;;;;;;;21.34;50.44;100410.94;5074579;28;20203;-71
2022/07/20 00:58:40;;;;;;;0.00;0.00;;;;;;;21.50;49.51;100413.44;5072801;28;20178;-71
2022/07/20 01:01:05;;;;;;;0.00;0.00;;;;;;;21.63;49.27;100405.59;5073615;28;20177;-71
2022/07/20 01:03:31;;;;;;;0.00;0.00;;;;;;;21.63;48.13;100411.94;5074481;28;20178;-71
2022/07/20 01:05:56;;;;;;;0.00;0.00;;;;;;;21.61;47.98;100414.31;5072990;28;20684;-72
2022/07/20 01:08:21;;;;;;;0.00;0.00;;;;;;;21.65;47.66;100406.00;5074380;28;20166;-71
2022/07/20 01:10:47;;;;;;;0.00;0.00;;;;;;;21.69;47.79;100399.25;5074260;28;20673;-72
2022/07/20 01:13:12;;;;;;;0.00;0.00;;;;;;;21.70;47.57;100411.22;5070108;28;20178;-72
2022/07/20 01:15:38;;;;;;;0.00;0.00;;;;;;;21.60;47.48;100414.72;5074096;28;20653;-72
2022/07/20 01:18:03;;;;;;;0.00;0.00;;;;;;;21.67;46.81;100412.75;5073745;28;20177;-72
2022/07/20 01:20:30;;;;;;;0.00;0.00;;;;;;;21.58;48.07;100417.09;5074018;28;20182;-72
2022/07/20 01:22:56;;;;;;;0.00;0.00;;;;;;;21.57;48.80;100423.84;5074003;28;20202;-71
2022/07/20 01:25:21;;;;;;;0.00;0.00;;;;;;;21.73;49.05;100420.75;5072690;28;20234;-71
2022/07/20 01:27:47;;;;;;;0.00;0.00;;;;;;;21.80;49.69;100413.25;5072470;28;20206;-71
2022/07/20 01:30:13;;;;;;;0.00;0.00;;;;;;;21.71;49.77;100418.38;5073921;28;20179;-71
2022/07/20 01:32:38;;;;;;;0.00;0.00;;;;;;;21.53;50.49;100414.66;5072547;28;20220;-71
2022/07/20 01:35:04;;;;;;;0.00;0.00;;;;;;;21.34;50.87;100410.94;5072518;28;20748;-71
2022/07/20 01:37:29;;;;;;;0.10;0.10;;;;;;;21.21;51.60;100406.84;5073707;28;20220;-71
2022/07/20 01:39:55;;;;;;;0.00;0.00;;;;;;;20.91;53.24;100406.97;5073596;28;20245;-71
2022/07/20 01:42:21;;;;;;;0.00;0.00;;;;;;;20.87;53.17;100408.91;5073686;28;20630;-71
2022/07/20 01:44:46;;;;;;;0.00;0.00;;;;;;;20.88;52.97;100399.41;5073641;28;20192;-71
2022/07/20 01:47:12;;;;;;;0.00;0.00;;;;;;;20.82;53.76;100400.91;5073424;28;20645;-71
2022/07/20 01:49:37;;;;;;;0.37;0.37;;;;;;;20.85;53.94;100397.41;5072081;28;20170;-71
2022/07/20 01:52:03;;;;;;;0.00;0.00;;;;;;;20.78;51.91;100395.34;5072208;28;20184;-71
2022/07/20 01:54:28;;;;;;;0.00;0.00;;;;;;;20.64;52.15;100397.16;5072440;28;20216;-71
2022/07/20 01:56:53;;;;;;;0.00;0.00;;;;;;;20.75;52.45;100389.75;5073260;28;20192;-72
2022/07/20 01:59:19;;;;;;;0.00;0.00;;;;;;;20.78;52.14;100392.56;5073313;28;20177;-71
2022/07/20 02:01:44;;;;;;;0.00;0.00;;;;;;;20.90;51.93;100387.91;5073088;28;20231;-72
2022/07/20 02:04:09;;;;;;;0.00;0.00;;;;;;;20.86;51.31;100381.53;5072952;28;20201;-71
2022/07/20 02:06:35;;;;;;;0.00;0.00;;;;;;;20.97;51.52;100385.19;5073083;28;20189;-71
2022/07/20 02:09:00;;;;;;;0.00;0.00;;;;;;;20.96;51.16;100380.81;5073050;28;20499;-71
2022/07/20 02:11:26;;;;;;;0.00;0.00;;;;;;;20.98;50.33;100384.03;5071694;28;20174;-71
2022/07/20 02:13:51;;;;;;;0.00;0.00;;;;;;;20.89;50.19;100380.75;5073071;28;20170;-71
2022/07/20 02:16:17;;;;;;;0.20;0.20;;;;;;;20.74;50.00;100382.59;5073034;28;20674;-71
2022/07/20 02:18:51;;;;;;;0.00;0.00;;;;;;;20.83;49.35;100382.28;5072578;28;20694;-72
2022/07/20 02:21:18;;;;;;;0.00;0.00;;;;;;;20.84;49.39;100384.69;5073273;28;20192;-71
2022/07/20 02:23:44;;;;;;;0.00;0.00;;;;;;;20.77;49.53;100387.38;5072872;28;20629;-71
2022/07/20 02:26:10;;;;;;;0.00;0.00;;;;;;;20.80;49.30;100389.41;5071578;28;20712;-71
2022/07/20 02:28:35;;;;;;;0.00;0.00;;;;;;;20.88;49.27;100393.84;5072456;28;20185;-72
2022/07/20 02:31:01;;;;;;;0.00;0.00;;;;;;;20.88;49.27;100393.06;5072731;28;20177;-71
2022/07/20 02:33:27;;;;;;;0.00;0.00;;;;;;;20.88;49.95;100393.84;5072720;28;20208;-72
2022/07/20 02:35:52;;;;;;;0.00;0.00;;;;;;;21.08;50.52;100391.63;5072670;28;20583;-71
2022/07/20 02:38:17;;;;;;;0.30;0.30;;;;;;;21.14;49.12;100397.66;5072095;28;20185;-71
2022/07/20 02:40:43;;;;;;;0.07;0.07;;;;;;;21.20;48.56;100398.88;5072548;28;20208;-71
2022/07/20 02:43:08;;;;;;;0.00;0.00;;;;;;;21.34;47.08;100402.59;5072553;28;20171;-71
2022/07/20 02:45:34;;;;;;;0.00;0.00;;;;;;;21.49;46.90;100391.59;5071201;28;20201;-71
2022/07/20 02:48:05;;;;;;;0.00;0.00;;;;;;;21.62;45.97;100398.44;5070999;28;20177;-72
2022/07/20 02:50:33;;;;;;;0.40;0.40;;;;;;;21.77;46.14;100393.75;5072536;28;20181;-71
2022/07/20 02:52:59;;;;;;;1.07;1.03;;;;;;;21.87;46.25;100398.59;5072244;28;20177;-71
2022/07/20 02:55:24;;;;;;;0.00;0.00;;;;;;;21.87;45.93;100406.94;5072287;28;20178;-71
2022/07/20 02:57:49;;;;;;;0.00;0.00;;;;;;;21.86;45.48;100399.78;5072265;28;20638;-71
2022/07/20 03:00:15;;;;;;;0.40;0.40;;;;;;;21.90;45.39;100409.75;5069795;28;20227;-71
2022/07/20 03:02:40;;;;;;;0.00;0.00;;;;;;;21.98;45.30;100405.00;5072201;28;20630;-71
2022/07/20 03:05:06;;;;;;;0.00;0.00;;;;;;;22.08;44.76;100404.28;5072124;28;20205;-71
2022/07/20 03:07:32;;;;;;;0.00;0.00;;;;;;;22.13;44.56;100409.50;5072048;28;20175;-71
2022/07/20 03:09:57;;;;;;;0.00;0.00;;;;;;;22.14;44.70;100408.31;5071755;28;20328;-71
2022/07/20 03:12:23;;;;;;;0.00;0.00;;;;;;;22.10;45.22;100401.91;5071930;28;20696;-71
2022/07/20 03:14:49;;;;;;;0.00;0.00;;;;;;;22.12;46.03;100407.88;5069979;28;20178;-71
2022/07/20 03:17:14;;;;;;;0.00;0.00;;;;;;;22.12;46.87;100401.50;5071728;28;20183;-71
2022/07/20 03:19:39;;;;;;;0.00;0.00;;;;;;;22.02;46.64;100399.47;5071673;28;20174;-71
2022/07/20 03:22:05;;;;;;;0.60;0.60;;;;;;;21.93;47.25;100405.38;5070446;28;20202;-71
2022/07/20 03:24:30;;;;;;;0.00;0.00;;;;;;;21.62;48.47;100407.56;5070319;28;20699;-72
2022/07/20 03:26:56;;;;;;;0.00;0.00;;;;;;;21.65;48.10;100404.00;5071487;28;20260;-71
2022/07/20 03:29:21;;;;;;;0.00;0.00;;;;;;;21.72;49.86;100406.06;5071617;28;20171;-71
2022/07/20 03:31:46;;;;;;;0.00;0.00;;;;;;;21.61;49.65;100405.97;5070288;28;20183;-72
2022/07/20 03:34:12;;;;;;;0.00;0.00;;;;;;;21.50;49.68;100409.88;5070311;28;20310;-72
2022/07/20 03:36:37;;;;;;;0.00;0.00;;;;;;;21.22;50.77;100419.53;5070009;28;20666;-71
2022/07/20 03:39:02;;;;;;;0.00;0.00;;;;;;;20.89;51.47;100417.66;5069829;28;20191;-72
2022/07/20 03:41:28;;;;;;;0.00;0.00;;;;;;;20.48;52.79;100419.59;5070152;28;20179;-72
2022/07/20 03:43:53;;;;;;;0.00;0.00;;;;;;;20.55;53.72;100422.47;5071368;28;20252;-71
2022/07/20 03:46:18;;;;;;;0.00;0.00;;;;;;;20.60;53.32;100426.88;5071388;28;20179;-71
2022/07/20 03:48:44;;;;;;;0.00;0.00;;;;;;;20.46;53.62;100424.75;5071309;28;20184;-72
2022/07/20 03:51:10;;;;;;;0.30;0.30;;;;;;;20.34;53.87;100422.19;5069834;28;20197;-72
2022/07/20 03:53:35;;;;;;;0.33;0.33;;;;;;;20.44;54.18;100435.41;5071259;28;20541;-71
2022/07/20 03:56:00;;;;;;;0.00;0.00;;;;;;;20.36;54.46;100425.38;5071201;28;20278;-72
2022/07/20 03:58:26;;;;;;;0.00;0.00;;;;;;;20.12;55.40;100426.69;5070808;28;20208;-72
2022/07/20 04:00:51;;;;;;;0.00;0.00;;;;;;;20.22;56.15;100426.00;5068889;28;20662;-71
2022/07/20 04:03:16;;;;;;;0.57;0.57;;;;;;;20.22;55.25;100431.53;5071348;28;20174;-71
2022/07/20 04:05:42;;;;;;;0.00;0.00;;;;;;;20.26;55.08;100426.84;5070890;28;20200;-71
2022/07/20 04:08:10;;;;;;;0.00;0.00;;;;;;;20.28;56.70;100424.50;5070574;28;20220;-71
2022/07/20 04:10:35;;;;;;;0.00;0.00;;;;;;;19.98;56.85;100427.28;5071030;28;20171;-71
2022/07/20 04:13:06;;;;;;;0.00;0.00;;;;;;;20.03;57.47;100426.94;5071068;28;20697;-71
2022/07/20 04:15:32;;;;;;;0.00;0.00;;;;;;;20.23;57.61;100430.34;5069588;28;20185;-71
2022/07/20 04:17:57;;;;;;;0.00;0.00;;;;;;;20.30;57.42;100424.91;5069583;28;20172;-71
2022/07/20 04:20:23;;;;;;;0.00;0.00;;;;;;;20.40;57.27;100432.59;5070954;28;20572;-71
2022/07/20 04:22:48;;;;;;;0.00;0.00;;;;;;;20.47;57.74;100429.91;5070983;28;20184;-72
2022/07/20 04:25:14;;;;;;;0.00;0.00;;;;;;;20.60;57.59;100435.22;5070822;28;20208;-71
2022/07/20 04:27:43;;;;;;;0.00;0.00;;;;;;;20.62;56.79;100432.84;5070951;28;20189;-71
2022/07/20 04:30:09;;;;;;;0.40;0.40;;;;;;;20.71;57.16;100431.38;5070696;28;20184;-72
2022/07/20 04:32:34;;;;;;;0.20;0.20;;;;;;;20.63;57.10;100438.00;5069503;28;20339;-72
2022/07/20 04:35:00;;;;;;;0.00;0.00;;;;;;;20.58;57.58;100434.78;5069339;28;20171;-71
2022/07/20 04:37:25;;;;;;;0.00;0.00;;;;;;;20.57;57.74;100433.19;5070555;28;20180;-71
2022/07/20 04:39:50;;;;;;;0.00;0.00;;;;;;;20.44;58.11;100439.00;5070552;28;20176;-71
2022/07/20 04:42:16;;;;;;;0.20;0.20;;;;;;;20.36;57.76;100433.69;5069388;28;20542;-72
2022/07/20 04:44:41;;;;;;;0.00;0.00;;;;;;;20.32;58.66;100430.88;5069184;28;20191;-71
2022/07/20 04:47:06;;;;;;;0.00;0.00;;;;;;;20.33;58.85;100434.44;5070498;28;20378;-72
2022/07/20 04:49:32;;;;;;;0.00;0.00;;;;;;;20.41;58.97;100438.94;5066304;28;20184;-71
2022/07/20 04:51:57;;;;;;;0.00;0.00;;;;;;;20.48;58.89;100439.81;5070711;28;20179;-71
2022/07/20 04:54:23;;;;;;;0.00;0.00;;;;;;;20.62;58.49;100438.41;5069263;28;20189;-72
2022/07/20 04:56:49;;;;;;;0.00;0.00;;;;;;;20.70;58.98;100440.09;5070374;28;20172;-71
2022/07/20 04:59:14;;;;;;;0.00;0.00;;;;;;;20.83;57.71;100438.66;5070406;28;20171;-71
2022/07/20 05:01:40;;;;;;;0.40;0.40;;;;;;;20.92;58.19;100443.88;5069869;28;20226;-72
2022/07/20 05:04:06;;;;;;;0.00;0.00;;;;;;;20.97;58.93;100435.19;5070360;28;20525;-71
2022/07/20 05:06:31;;;;;;;0.00;0.00;;;;;;;21.03;58.06;100442.00;5070533;28;20187;-71
2022/07/20 05:08:56;;;;;;;0.00;0.00;;;;;;;21.05;57.07;100439.63;5069989;28;20177;-72
2022/07/20 05:11:22;;;;;;;0.20;0.20;;;;;;;21.12;56.29;100436.94;5069095;28;20183;-72
2022/07/20 05:13:47;;;;;;;0.00;0.00;;;;;;;21.25;55.55;100432.69;5070353;28;20216;-71
2022/07/20 05:16:13;;;;;;;0.10;0.10;;;;;;;21.34;57.37;100443.50;5070652;28;20268;-71
2022/07/20 05:18:38;;;;;;;0.03;0.03;;;;;;;21.39;58.36;100437.56;5068674;28;20198;-71
2022/07/20 05:21:05;;;;;;;0.00;0.00;;;;;;;21.41;58.57;100443.56;5068945;28;20575;-71
2022/07/20 05:23:30;;;;;;;0.00;0.00;;;;;;;21.48;56.74;100443.63;5070299;28;20234;-71
2022/07/20 05:25:55;;;;;;;0.00;0.00;;;;;;;21.60;55.99;100448.09;5070228;28;20201;-71
2022/07/20 05:28:21;;;;;;;0.00;0.00;;;;;;;21.71;56.57;100439.81;5068487;28;20175;-71
2022/07/20 05:30:48;;;;;;;0.00;0.00;;;;;;;21.81;56.50;100442.66;5070074;28;20256;-71
2022/07/20 05:33:14;;;;;;;0.00;0.00;;;;;;;21.91;55.59;100450.28;5070210;28;20182;-72
2022/07/20 05:35:39;;;;;;;0.00;0.00;;;;;;;22.01;56.12;100448.75;5068850;28;20224;-71
2022/07/20 05:38:05;;;;;;;0.00;0.00;;;;;;;22.21;55.76;100452.06;5070552;28;20193;-71
2022/07/20 05:40:30;;;;;;;0.00;0.00;;;;;;;22.51;57.13;100446.22;5073783;28;20265;-71
2022/07/20 05:42:58;;;;;;;0.00;0.00;;;;;;;22.62;56.23;100447.06;5073768;28;20568;-71
2022/07/20 05:45:23;;;;;;;0.00;0.00;;;;;;;22.80;56.91;100453.47;5073532;28;20297;-71
2022/07/20 05:47:49;;;;;;;0.00;0.00;;;;;;;23.15;55.66;100447.22;5073534;28;20682;-72
2022/07/20 05:50:14;;;;;;;0.00;0.00;;;;;;;23.29;54.05;100451.19;5071933;28;20237;-72
2022/07/20 05:52:39;;;;;;;0.60;0.60;;;;;;;23.38;51.80;100452.38;5073541;28;20202;-71
2022/07/20 05:55:07;;;;;;;0.00;0.00;;;;;;;23.50;52.78;100451.19;5072212;28;20727;-71
2022/07/20 05:57:33;;;;;;;0.00;0.00;;;;;;;23.56;52.18;100455.16;5071894;28;20202;-72
2022/07/20 05:59:58;;;;;;;0.00;0.00;;;;;;;23.67;52.93;100461.56;5072662;28;20206;-72
2022/07/20 06:02:23;;;;;;;0.00;0.00;;;;;;;23.65;51.92;100461.16;5072151;28;20202;-72
2022/07/20 06:04:49;;;;;;;0.00;0.00;;;;;;;23.83;52.10;100466.72;5073942;28;20207;-72
2022/07/20 06:07:14;;;;;;;0.00;0.00;;;;;;;23.92;51.68;100463.53;5074623;28;20183;-72
2022/07/20 06:09:39;;;;;;;0.00;0.00;;;;;;;24.03;51.18;100473.47;5070993;28;20185;-72
2022/07/20 06:12:05;;;;;;;0.00;0.00;;;;;;;24.35;51.38;100474.63;5072955;28;20186;-72
2022/07/20 06:14:30;;;;;;;0.00;0.00;;;;;;;24.47;51.13;100476.97;5070660;28;20190;-71
2022/07/20 06:16:56;;;;;;;0.00;0.00;;;;;;;24.52;51.99;100474.53;5072911;28;20193;-72
2022/07/20 06:19:21;;;;;;;0.00;0.00;;;;;;;24.62;51.09;100472.91;5072953;28;20186;-72
2022/07/20 06:21:46;;;;;;;0.00;0.00;;;;;;;24.70;50.81;100476.44;5071672;28;20197;-71
2022/07/20 06:24:12;;;;;;;0.00;0.00;;;;;;;24.83;50.87;100474.78;5072968;28;20177;-72
2022/07/20 06:26:37;;;;;;;0.00;0.00;;;;;;;24.90;50.61;100475.56;5072440;28;20171;-71
2022/07/20 06:29:03;;;;;;;0.00;0.00;;;;;;;25.05;50.32;100479.09;5072731;28;20174;-73
2022/07/20 06:31:28;;;;;;;0.00;0.00;;;;;;;25.18;50.09;100491.38;5072973;28;20698;-73
2022/07/20 06:33:54;;;;;;;0.00;0.00;;;;;;;25.35;49.22;100492.47;5071408;28;20175;-73
2022/07/20 06:36:19;;;;;;;0.53;0.53;;;;;;;25.54;48.71;100493.91;5072754;28;20263;-72
2022/07/20 06:38:45;;;;;;;0.13;0.13;;;;;;;25.92;46.35;100494.00;5071010;28;20183;-73
2022/07/20 06:41:11;;;;;;;0.23;0.23;;;;;;;26.24;44.18;100490.88;5071234;28;20170;-80
2022/07/20 06:43:36;;;;;;;0.30;0.30;;;;;;;26.73;43.71;100488.69;5071099;28;20171;-74
2022/07/20 06:46:02;;;;;;;0.77;0.40;;;;;;;27.22;40.46;100496.44;5071125;28;20199;-72
2022/07/20 06:48:27;;;;;;;0.00;0.00;;;;;;;27.66;39.60;100502.97;5072131;28;20179;-72
2022/07/20 06:50:52;;;;;;;1.17;1.07;;;;;;;28.04;38.89;100500.69;5071244;28;20948;-73
2022/07/20 06:53:18;;;;;;;4.43;2.37;;;;;;;28.57;36.70;100501.69;5072381;28;20636;-73
2022/07/20 06:55:44;;;;;;;1.43;1.00;;;;;;;28.84;36.24;100504.34;5070981;28;20180;-73
2022/07/20 06:58:10;;;;;;;0.10;0.07;;;;;;;28.95;36.39;100498.50;5070515;28;20196;-72
2022/07/20 07:00:35;;;;;;;0.20;0.20;;;;;;;28.90;37.42;100507.44;5070410;28;20629;-73
2022/07/20 07:03:01;;;;;;;0.80;0.80;;;;;;;28.93;36.24;100503.75;5072506;28;20684;-72
2022/07/20 07:05:26;;;;;;;0.67;0.67;;;;;;;29.26;35.62;100499.78;5070792;28;20670;-73
2022/07/20 07:07:51;;;;;;;0.20;0.20;;;;;;;29.46;35.73;100505.34;5070421;28;20193;-72
2022/07/20 07:10:17;;;;;;;0.40;0.40;;;;;;;29.60;35.75;100502.19;5071730;28;20265;-72
2022/07/20 07:12:42;;;;;;;0.67;0.67;;;;;;;29.60;36.03;100502.19;5071887;28;20320;-73
2022/07/20 07:15:08;;;;;;;0.43;0.43;;;;;;;29.78;35.95;100504.53;5070546;28;20174;-72
2022/07/20 07:17:33;;;;;;;0.80;0.70;;;;;;;29.85;36.02;100503.59;5071738;28;20209;-72
2022/07/20 07:19:59;;;;;;;0.10;0.10;;;;;;;29.88;36.12;100491.44;5070368;28;20542;-72
2022/07/20 07:22:27;;;;;;;6.37;0.60;;;;;;;30.03;36.81;100498.25;5071850;28;20221;-72
2022/07/20 07:24:53;;;;;;;1.40;1.30;;;;;;;30.18;35.04;100502.31;5070374;28;20694;-72
2022/07/20 07:27:19;;;;;;;0.60;0.60;;;;;;;30.27;35.38;100498.06;5070099;28;20171;-72
2022/07/20 07:29:45;;;;;;;0.00;0.00;;;;;;;30.57;35.65;100497.59;5071490;28;20530;-72
2022/07/20 07:32:10;;;;;;;0.47;0.47;;;;;;;30.45;34.99;100496.31;5071551;28;20181;-72
2022/07/20 07:34:36;;;;;;;0.50;0.50;;;;;;;30.47;34.85;100493.03;5070253;28;20786;-72
2022/07/20 07:37:01;;;;;;;0.00;0.00;;;;;;;30.64;35.28;100496.59;5067637;28;20796;-73
2022/07/20 07:39:26;;;;;;;0.00;0.00;;;;;;;30.80;35.61;100496.50;5071066;28;20187;-72
2022/07/20 07:41:52;;;;;;;0.67;0.67;;;;;;;30.93;35.07;100490.88;5070092;28;20704;-72
2022/07/20 07:44:17;;;;;;;0.63;0.63;;;;;;;31.15;34.53;100479.72;5069873;28;20523;-72
2022/07/20 07:46:42;;;;;;;0.00;0.00;;;;;;;31.20;34.69;100484.84;5067971;28;20582;-72
2022/07/20 07:49:08;;;;;;;0.07;0.07;;;;;;;31.24;34.56;100489.13;5070872;28;20196;-72
2022/07/20 07:51:33;;;;;;;0.00;0.00;;;;;;;31.38;35.03;100483.00;5070991;28;20185;-72
2022/07/20 07:53:58;;;;;;;0.00;0.00;;;;;;;31.51;35.00;100487.84;5071219;28;20175;-72
2022/07/20 07:56:24;;;;;;;0.10;0.10;;;;;;;31.58;34.00;100473.50;5069882;28;20179;-72
2022/07/20 07:58:50;;;;;;;0.00;0.00;;;;;;;31.52;33.63;100478.13;5070234;28;20189;-72
2022/07/20 08:01:15;;;;;;;0.20;0.20;;;;;;;31.63;34.32;100470.09;5066457;28;20172;-72
2022/07/20 08:03:41;;;;;;;1.33;1.23;;;;;;;31.78;33.33;100476.84;5070853;28;20179;-72
2022/07/20 08:06:06;;;;;;;0.00;0.00;;;;;;;31.93;32.79;100468.66;5069610;28;20204;-72
2022/07/20 08:08:32;;;;;;;0.20;0.20;;;;;;;32.01;33.57;100464.34;5070505;28;20172;-72
2022/07/20 08:10:58;;;;;;;0.00;0.00;;;;;;;32.17;33.37;100466.19;5069675;28;20575;-73
2022/07/20 08:13:24;;;;;;;0.00;0.00;;;;;;;32.33;33.58;100463.19;5069543;28;20195;-73
2022/07/20 08:15:49;;;;;;;0.00;0.00;;;;;;;32.32;32.71;100458.00;5069442;28;20686;-73
2022/07/20 08:18:15;;;;;;;0.00;0.00;;;;;;;32.30;33.13;100461.31;5070083;28;20653;-72
2022/07/20 08:20:40;;;;;;;1.10;1.10;;;;;;;32.41;32.37;100461.69;5070174;28;20702;-72
2022/07/20 08:23:05;;;;;;;0.10;0.10;;;;;;;32.43;32.78;100464.06;5069016;28;20223;-72
2022/07/20 08:25:32;;;;;;;0.27;0.27;;;;;;;32.51;32.39;100460.47;5069048;28;20232;-73
2022/07/20 08:28:09;;;;;;;0.13;0.13;;;;;;;32.70;32.51;100460.59;5069883;28;20630;-73
2022/07/20 08:30:34;;;;;;;0.60;0.60;;;;;;;32.67;31.87;100453.03;5069116;28;20191;-73
2022/07/20 08:33:00;;;;;;;6.50;1.80;;;;;;;32.70;32.33;100460.59;5068858;28;20181;-73
2022/07/20 08:35:25;;;;;;;0.83;0.83;;;;;;;32.63;32.82;100452.38;5065961;28;20278;-73
2022/07/20 08:37:50;;;;;;;1.50;1.10;;;;;;;32.60;32.97;100447.66;5069001;28;20194;-73
2022/07/20 08:40:16;;;;;;;1.00;0.50;;;;;;;32.65;32.16;100447.03;5069023;28;20174;-72
2022/07/20 08:42:42;;;;;;;0.30;0.23;;;;;;;32.70;32.75;100443.63;5070514;28;20257;-73
2022/07/20 08:45:09;;;;;;;0.00;0.00;;;;;;;32.87;32.24;100452.69;5069266;28;20303;-72
2022/07/20 08:47:39;;;;;;;0.20;0.20;;;;;;;33.09;31.99;100459.84;5070267;28;20183;-73
2022/07/20 08:50:05;;;;;;;3.53;1.47;;;;;;;33.13;31.80;100456.88;5068759;28;20194;-73
2022/07/20 08:52:30;;;;;;;0.43;0.43;;;;;;;33.24;30.89;100457.22;5069621;28;20178;-73
2022/07/20 08:54:56;;;;;;;0.00;0.00;;;;;;;33.24;31.42;100450.75;5069261;28;20171;-73
2022/07/20 08:57:21;;;;;;;0.00;0.00;;;;;;;33.34;30.64;100449.56;5070342;28;20255;-73
2022/07/20 08:59:47;;;;;;;0.00;0.00;;;;;;;33.44;31.05;100448.34;5069145;28;20511;-73
2022/07/20 09:02:13;;;;;;;0.40;0.37;;;;;;;33.53;30.74;100447.56;5070527;28;20168;-73
2022/07/20 09:05:08;;;;;;;0.43;0.43;;;;;;;33.65;29.87;100450.25;5070368;28;20205;-73
2022/07/20 09:07:38;;;;;;;2.00;1.90;;;;;;;33.65;29.14;100458.75;5055936;28;20187;-73
2022/07/20 09:10:07;;;;;;;0.00;0.00;;;;;;;33.64;29.82;100454.34;5069051;28;20168;-73
2022/07/20 09:13:08;;;;;;;1.13;1.00;;;;;;;33.84;28.75;100456.72;5064900;28;20408;-73
2022/07/20 09:15:44;;;;;;;0.53;0.53;;;;;;;33.85;28.91;100454.66;5071704;28;20192;-73
2022/07/20 09:18:12;;;;;;;5.27;1.10;;;;;;;33.92;29.56;100457.22;5072768;28;20171;-75
2022/07/20 09:20:41;;;;;;;0.10;0.10;;;;;;;34.06;28.87;100456.59;5072204;28;20180;-73
2022/07/20 09:23:10;;;;;;;0.00;0.00;;;;;;;34.10;28.42;100442.25;5072450;28;20542;-73
2022/07/20 09:25:37;;;;;;;1.20;1.10;;;;;;;34.22;28.26;100449.81;5073318;28;20228;-73
2022/07/20 09:28:03;;;;;;;0.00;0.00;;;;;;;34.33;29.41;100443.66;5069433;28;20246;-73
2022/07/20 09:30:29;;;;;;;1.23;1.17;;;;;;;34.46;27.68;100450.75;5071242;28;20180;-73
2022/07/20 09:33:02;;;;;;;0.43;0.40;;;;;;;34.39;28.25;100451.06;5071569;28;20172;-73
2022/07/20 09:35:33;;;;;;;18.33;3.23;;;;;;;34.16;28.00;100449.66;5072037;28;20212;-73
2022/07/20 09:38:01;;;;;;;0.00;0.00;;;;;;;34.19;28.52;100447.94;5071771;28;20183;-73
2022/07/20 09:40:26;;;;;;;0.20;0.20;;;;;;;34.38;28.31;100454.38;5073519;28;20211;-73
2022/07/20 09:42:52;;;;;;;0.20;0.20;;;;;;;34.54;28.35;100442.66;5071084;28;20209;-73
2022/07/20 09:45:26;;;;;;;0.50;0.50;;;;;;;34.84;27.78;100443.66;5064380;28;20239;-74
2022/07/20 09:48:03;;;;;;;0.37;0.37;;;;;;;34.71;27.78;100438.19;5065943;28;20242;-73
2022/07/20 09:50:31;;;;;;;0.00;0.00;;;;;;;34.66;28.00;100447.38;5071591;28;20705;-73
2022/07/20 09:52:57;;;;;;;0.40;0.40;;;;;;;34.62;28.20;100437.47;5071709;28;20188;-73
2022/07/20 09:55:23;;;;;;;0.20;0.20;;;;;;;34.72;28.04;100436.97;5073060;28;20177;-73
2022/07/20 09:57:52;;;;;;;0.63;0.60;;;;;;;34.74;28.19;100431.59;5072116;28;20173;-74
2022/07/20 10:00:19;;;;;;;0.37;0.37;;;;;;;34.91;28.87;100434.06;5070748;28;20224;-73
2022/07/20 10:02:49;;;;;;;0.20;0.20;;;;;;;35.02;28.02;100437.97;5070848;28;20186;-74
2022/07/20 10:05:18;;;;;;;1.13;1.03;;;;;;;35.00;27.67;100437.63;5071394;28;20206;-73
2022/07/20 10:07:44;;;;;;;1.40;1.23;;;;;;;35.03;27.74;100435.91;5068940;28;20182;-73
2022/07/20 10:10:12;;;;;;;0.50;0.50;;;;;;;35.08;27.35;100436.03;5065404;28;20182;-73
2022/07/20 10:12:38;;;;;;;1.70;1.00;;;;;;;35.12;26.91;100427.31;5072467;28;20182;-73
2022/07/20 10:15:12;;;;;;;0.33;0.13;;;;;;;35.30;27.51;100413.03;5072967;28;20667;-73
2022/07/20 10:17:39;;;;;;;4.83;1.47;;;;;;;35.43;27.00;100424.94;5072640;28;20185;-73
2022/07/20 10:20:27;;;;;;;0.10;0.10;;;;;;;35.52;26.64;100426.16;5072829;28;20700;-73
2022/07/20 10:23:27;;;;;;;0.10;0.10;;;;;;;35.58;26.66;100418.53;5073170;28;20216;-73
2022/07/20 10:25:53;;;;;;;0.00;0.00;;;;;;;35.51;26.37;100414.00;5072896;28;20214;-73
2022/07/20 10:28:34;;;;;;;0.40;0.40;;;;;;;35.60;26.14;100407.47;5072407;28;20271;-73
2022/07/20 10:31:08;;;;;;;0.00;0.00;;;;;;;35.65;27.15;100410.44;5071645;28;20277;-73
2022/07/20 10:33:37;;;;;;;2.87;2.10;;;;;;;35.58;26.55;100404.31;5072968;28;20219;-73
2022/07/20 10:38:56;;;;;;;1.27;1.17;;;;;;;35.80;25.56;100398.31;5072442;28;20201;-73
2022/07/20 10:41:33;;;;;;;0.00;0.00;;;;;;;35.86;26.86;100404.91;5071464;28;20648;-73
2022/07/20 10:44:20;;;;;;;0.00;0.00;;;;;;;35.97;25.86;100400.22;5072795;28;20614;-73
2022/07/20 10:46:49;;;;;;;0.10;0.10;;;;;;;36.12;25.70;100405.13;5072487;28;20645;-74
2022/07/20 10:49:16;;;;;;;0.10;0.10;;;;;;;36.12;25.61;100411.59;5071115;28;20228;-74
2022/07/20 10:52:22;;;;;;;0.10;0.10;;;;;;;36.11;26.00;100406.41;5072427;28;20182;-74
2022/07/20 10:54:48;;;;;;;0.37;0.30;;;;;;;36.17;25.79;100390.22;5072327;28;20167;-75
2022/07/20 10:57:13;;;;;;;13.03;1.43;;;;;;;35.94;25.26;100389.81;5071759;28;20310;-75
2022/07/20 10:59:39;;;;;;;0.20;0.13;;;;;;;35.85;26.28;100392.75;5070841;28;20265;-74
2022/07/20 11:02:05;;;;;;;3.37;2.37;;;;;;;36.07;25.92;100386.69;5072306;28;20263;-74
2022/07/20 11:04:41;;;;;;;0.93;0.93;;;;;;;36.16;25.86;100397.97;5072138;28;20197;-75
2022/07/20 11:07:06;;;;;;;0.00;0.00;;;;;;;36.24;25.20;100390.63;5071976;28;20213;-75
2022/07/20 11:09:32;;;;;;;1.77;1.63;;;;;;;36.19;24.25;100399.84;5070528;28;20214;-74
2022/07/20 11:11:57;;;;;;;0.23;0.23;;;;;;;36.41;24.80;100393.00;5071937;28;20686;-74
2022/07/20 11:14:22;;;;;;;0.00;0.00;;;;;;;36.30;24.08;100390.72;5070839;28;20642;-73
2022/07/20 11:16:54;;;;;;;1.27;1.27;;;;;;;36.29;24.63;100383.44;5067881;28;20317;-75
2022/07/20 11:19:20;;;;;;;0.63;0.63;;;;;;;36.37;24.35;100390.34;5067153;28;20194;-74
2022/07/20 11:21:45;;;;;;;0.97;0.97;;;;;;;36.46;24.54;100381.72;5071520;28;20167;-74
2022/07/20 11:24:28;;;;;;;3.30;0.33;;;;;;;36.56;24.25;100371.78;5070308;28;20175;-74
2022/07/20 11:26:55;;;;;;;0.77;0.40;;;;;;;36.76;25.18;100368.22;5070410;28;20170;-74
2022/07/20 11:29:20;;;;;;;4.33;0.73;;;;;;;36.93;25.26;100365.63;5070249;28;20270;-74